sensor_id;sensor_type;location;lat;lon;timestamp;P1;durP1;ratioP1;P2;durP2;ratioP2
69203;SDS011;56317;27.658;85.326;2023-03-11T00:00:25;212.40;;;116.85;;
69203;SDS011;56317;27.658;85.326;2023-03-11T00:02:54;195.07;;;112.68;;
69203;SDS011;56317;27.658;85.326;2023-03-11T00:05:24;200.15;;;113.88;;
69203;SDS011;56317;27.658;85.326;2023-03-11T00:07:56;207.18;;;113.82;;
69203;SDS011;56317;27.658;85.326;2023-03-11T00:10:24;202.25;;;111.50;;
69203;SDS011;56317;27.658;85.326;2023-03-11T00:12:57;201.32;;;114.45;;
69203;SDS011;56317;27.658;85.326;2023-03-11T00:15:25;196.80;;;110.20;;
69203;SDS011;56317;27.658;85.326;2023-03-11T00:17:54;204.98;;;112.70;;
69203;SDS011;56317;27.658;85.326;2023-03-11T00:20:40;210.35;;;114.15;;
69203;SDS011;56317;27.658;85.326;2023-03-11T00:23:10;200.95;;;115.38;;
69203;SDS011;56317;27.658;85.326;2023-03-11T00:25:38;207.85;;;111.38;;
69203;SDS011;56317;27.658;85.326;2023-03-11T00:28:08;186.50;;;108.22;;
69203;SDS011;56317;27.658;85.326;2023-03-11T00:30:38;187.75;;;108.88;;
69203;SDS011;56317;27.658;85.326;2023-03-11T00:33:06;207.45;;;117.10;;
69203;SDS011;56317;27.658;85.326;2023-03-11T00:35:35;186.10;;;110.88;;
69203;SDS011;56317;27.658;85.326;2023-03-11T00:38:04;181.15;;;106.13;;
69203;SDS011;56317;27.658;85.326;2023-03-11T00:40:33;183.43;;;111.68;;
69203;SDS011;56317;27.658;85.326;2023-03-11T00:43:01;197.95;;;114.65;;
69203;SDS011;56317;27.658;85.326;2023-03-11T00:45:28;192.20;;;112.60;;
69203;SDS011;56317;27.658;85.326;2023-03-11T00:47:56;187.70;;;112.65;;
69203;SDS011;56317;27.658;85.326;2023-03-11T00:50:25;187.55;;;112.28;;
69203;SDS011;56317;27.658;85.326;2023-03-11T00:52:54;192.85;;;114.07;;
69203;SDS011;56317;27.658;85.326;2023-03-11T00:55:22;198.88;;;118.75;;
69203;SDS011;56317;27.658;85.326;2023-03-11T00:57:55;202.57;;;117.63;;
69203;SDS011;56317;27.658;85.326;2023-03-11T01:00:28;203.07;;;120.70;;
69203;SDS011;56317;27.658;85.326;2023-03-11T01:02:55;214.13;;;126.00;;
69203;SDS011;56317;27.658;85.326;2023-03-11T01:05:26;199.35;;;119.13;;
69203;SDS011;56317;27.658;85.326;2023-03-11T01:07:57;217.73;;;127.93;;
69203;SDS011;56317;27.658;85.326;2023-03-11T01:10:24;230.38;;;134.50;;
69203;SDS011;56317;27.658;85.326;2023-03-11T01:12:52;252.20;;;139.45;;
69203;SDS011;56317;27.658;85.326;2023-03-11T01:15:21;249.38;;;143.27;;
69203;SDS011;56317;27.658;85.326;2023-03-11T01:17:51;240.55;;;138.60;;
69203;SDS011;56317;27.658;85.326;2023-03-11T01:20:18;250.60;;;140.52;;
69203;SDS011;56317;27.658;85.326;2023-03-11T01:22:45;231.30;;;135.02;;
69203;SDS011;56317;27.658;85.326;2023-03-11T01:25:14;217.80;;;129.68;;
69203;SDS011;56317;27.658;85.326;2023-03-11T01:27:43;219.23;;;129.18;;
69203;SDS011;56317;27.658;85.326;2023-03-11T01:30:15;216.50;;;130.35;;
69203;SDS011;56317;27.658;85.326;2023-03-11T01:32:47;228.38;;;131.57;;
69203;SDS011;56317;27.658;85.326;2023-03-11T01:35:16;253.77;;;141.00;;
69203;SDS011;56317;27.658;85.326;2023-03-11T01:37:46;239.33;;;136.07;;
69203;SDS011;56317;27.658;85.326;2023-03-11T01:40:15;226.02;;;135.15;;
69203;SDS011;56317;27.658;85.326;2023-03-11T01:42:52;232.48;;;134.70;;
69203;SDS011;56317;27.658;85.326;2023-03-11T01:47:52;231.70;;;133.20;;
69203;SDS011;56317;27.658;85.326;2023-03-11T01:50:20;228.68;;;138.35;;
69203;SDS011;56317;27.658;85.326;2023-03-11T01:52:48;239.95;;;139.43;;
69203;SDS011;56317;27.658;85.326;2023-03-11T01:55:16;245.95;;;137.55;;
69203;SDS011;56317;27.658;85.326;2023-03-11T01:57:44;226.98;;;134.40;;
69203;SDS011;56317;27.658;85.326;2023-03-11T02:00:13;215.85;;;130.13;;
69203;SDS011;56317;27.658;85.326;2023-03-11T02:02:42;240.77;;;135.05;;
69203;SDS011;56317;27.658;85.326;2023-03-11T02:05:16;227.25;;;134.07;;
69203;SDS011;56317;27.658;85.326;2023-03-11T02:07:48;237.25;;;135.77;;
69203;SDS011;56317;27.658;85.326;2023-03-11T02:10:17;219.73;;;133.98;;
69203;SDS011;56317;27.658;85.326;2023-03-11T02:12:44;205.65;;;127.90;;
69203;SDS011;56317;27.658;85.326;2023-03-11T02:15:13;195.23;;;124.57;;
69203;SDS011;56317;27.658;85.326;2023-03-11T02:17:41;210.18;;;125.82;;
69203;SDS011;56317;27.658;85.326;2023-03-11T02:23:06;208.27;;;129.05;;
69203;SDS011;56317;27.658;85.326;2023-03-11T02:25:50;195.20;;;121.47;;
69203;SDS011;56317;27.658;85.326;2023-03-11T02:28:40;195.05;;;121.57;;
69203;SDS011;56317;27.658;85.326;2023-03-11T02:31:08;187.02;;;117.95;;
69203;SDS011;56317;27.658;85.326;2023-03-11T02:33:36;189.65;;;116.30;;
69203;SDS011;56317;27.658;85.326;2023-03-11T02:36:04;188.20;;;114.78;;
69203;SDS011;56317;27.658;85.326;2023-03-11T02:38:31;194.05;;;118.05;;
69203;SDS011;56317;27.658;85.326;2023-03-11T02:41:00;172.65;;;110.35;;
69203;SDS011;56317;27.658;85.326;2023-03-11T02:46:06;163.30;;;106.63;;
69203;SDS011;56317;27.658;85.326;2023-03-11T02:48:35;166.15;;;106.05;;
69203;SDS011;56317;27.658;85.326;2023-03-11T02:51:03;166.75;;;103.07;;
69203;SDS011;56317;27.658;85.326;2023-03-11T02:53:32;161.02;;;99.82;;
69203;SDS011;56317;27.658;85.326;2023-03-11T02:56:04;149.93;;;103.70;;
69203;SDS011;56317;27.658;85.326;2023-03-11T02:58:31;138.80;;;90.93;;
69203;SDS011;56317;27.658;85.326;2023-03-11T03:00:58;129.88;;;85.10;;
69203;SDS011;56317;27.658;85.326;2023-03-11T03:03:25;129.48;;;87.80;;
69203;SDS011;56317;27.658;85.326;2023-03-11T03:05:52;137.80;;;86.47;;
69203;SDS011;56317;27.658;85.326;2023-03-11T03:08:19;147.73;;;94.32;;
69203;SDS011;56317;27.658;85.326;2023-03-11T03:10:47;126.00;;;85.57;;
69203;SDS011;56317;27.658;85.326;2023-03-11T03:13:14;127.95;;;83.82;;
69203;SDS011;56317;27.658;85.326;2023-03-11T03:15:41;118.82;;;84.97;;
69203;SDS011;56317;27.658;85.326;2023-03-11T03:18:08;142.75;;;91.80;;
69203;SDS011;56317;27.658;85.326;2023-03-11T03:20:35;147.90;;;95.10;;
69203;SDS011;56317;27.658;85.326;2023-03-11T03:23:03;139.20;;;93.03;;
69203;SDS011;56317;27.658;85.326;2023-03-11T03:25:30;135.98;;;92.05;;
69203;SDS011;56317;27.658;85.326;2023-03-11T03:27:57;147.70;;;93.90;;
69203;SDS011;56317;27.658;85.326;2023-03-11T03:30:24;137.32;;;90.05;;
69203;SDS011;56317;27.658;85.326;2023-03-11T03:32:54;147.68;;;92.70;;
69203;SDS011;56317;27.658;85.326;2023-03-11T03:35:21;140.30;;;89.85;;
69203;SDS011;56317;27.658;85.326;2023-03-11T03:37:48;142.02;;;92.22;;
69203;SDS011;56317;27.658;85.326;2023-03-11T03:40:16;147.57;;;92.72;;
69203;SDS011;56317;27.658;85.326;2023-03-11T03:42:43;144.73;;;95.05;;
69203;SDS011;56317;27.658;85.326;2023-03-11T03:45:10;146.50;;;95.97;;
69203;SDS011;56317;27.658;85.326;2023-03-11T03:47:38;143.13;;;96.40;;
69203;SDS011;56317;27.658;85.326;2023-03-11T03:50:05;139.40;;;95.15;;
69203;SDS011;56317;27.658;85.326;2023-03-11T03:52:35;145.10;;;95.22;;
69203;SDS011;56317;27.658;85.326;2023-03-11T03:55:03;137.82;;;93.82;;
69203;SDS011;56317;27.658;85.326;2023-03-11T03:57:31;156.98;;;97.90;;
69203;SDS011;56317;27.658;85.326;2023-03-11T03:59:58;144.27;;;96.03;;
69203;SDS011;56317;27.658;85.326;2023-03-11T04:02:25;149.05;;;96.78;;
69203;SDS011;56317;27.658;85.326;2023-03-11T04:04:53;148.15;;;93.35;;
69203;SDS011;56317;27.658;85.326;2023-03-11T04:07:21;142.80;;;93.13;;
69203;SDS011;56317;27.658;85.326;2023-03-11T04:09:48;135.85;;;93.15;;
69203;SDS011;56317;27.658;85.326;2023-03-11T04:12:16;149.45;;;93.05;;
69203;SDS011;56317;27.658;85.326;2023-03-11T04:14:43;138.82;;;95.53;;
69203;SDS011;56317;27.658;85.326;2023-03-11T04:17:11;147.65;;;95.25;;
69203;SDS011;56317;27.658;85.326;2023-03-11T04:19:39;150.40;;;95.25;;
69203;SDS011;56317;27.658;85.326;2023-03-11T04:22:06;146.73;;;96.55;;
69203;SDS011;56317;27.658;85.326;2023-03-11T04:24:33;139.90;;;95.85;;
69203;SDS011;56317;27.658;85.326;2023-03-11T04:27:00;126.95;;;88.13;;
69203;SDS011;56317;27.658;85.326;2023-03-11T04:29:28;119.43;;;86.95;;
69203;SDS011;56317;27.658;85.326;2023-03-11T04:31:55;124.25;;;85.47;;
69203;SDS011;56317;27.658;85.326;2023-03-11T04:34:22;130.82;;;90.40;;
69203;SDS011;56317;27.658;85.326;2023-03-11T04:36:52;137.07;;;92.07;;
69203;SDS011;56317;27.658;85.326;2023-03-11T04:39:20;131.33;;;88.13;;
69203;SDS011;56317;27.658;85.326;2023-03-11T04:41:47;117.43;;;80.50;;
69203;SDS011;56317;27.658;85.326;2023-03-11T04:44:14;105.10;;;77.53;;
69203;SDS011;56317;27.658;85.326;2023-03-11T04:46:42;117.82;;;79.97;;
69203;SDS011;56317;27.658;85.326;2023-03-11T04:49:09;116.50;;;78.80;;
69203;SDS011;56317;27.658;85.326;2023-03-11T04:51:36;113.53;;;79.35;;
69203;SDS011;56317;27.658;85.326;2023-03-11T04:54:03;125.28;;;83.53;;
69203;SDS011;56317;27.658;85.326;2023-03-11T04:56:31;119.15;;;80.47;;
69203;SDS011;56317;27.658;85.326;2023-03-11T04:58:58;122.05;;;79.97;;
69203;SDS011;56317;27.658;85.326;2023-03-11T05:01:25;115.43;;;83.05;;
69203;SDS011;56317;27.658;85.326;2023-03-11T05:03:53;115.93;;;80.57;;
69203;SDS011;56317;27.658;85.326;2023-03-11T05:06:20;112.28;;;82.95;;
69203;SDS011;56317;27.658;85.326;2023-03-11T05:08:47;122.25;;;79.57;;
69203;SDS011;56317;27.658;85.326;2023-03-11T05:11:14;114.78;;;80.45;;
69203;SDS011;56317;27.658;85.326;2023-03-11T05:13:41;98.68;;;68.72;;
69203;SDS011;56317;27.658;85.326;2023-03-11T05:16:09;81.45;;;57.70;;
69203;SDS011;56317;27.658;85.326;2023-03-11T05:18:36;75.65;;;54.30;;
69203;SDS011;56317;27.658;85.326;2023-03-11T05:21:03;67.82;;;48.58;;
69203;SDS011;56317;27.658;85.326;2023-03-11T05:23:31;66.43;;;47.28;;
69203;SDS011;56317;27.658;85.326;2023-03-11T05:25:58;64.55;;;45.55;;
69203;SDS011;56317;27.658;85.326;2023-03-11T05:28:25;59.33;;;47.28;;
69203;SDS011;56317;27.658;85.326;2023-03-11T05:30:52;65.55;;;45.72;;
69203;SDS011;56317;27.658;85.326;2023-03-11T05:33:19;71.72;;;48.17;;
69203;SDS011;56317;27.658;85.326;2023-03-11T05:35:47;60.08;;;43.58;;
69203;SDS011;56317;27.658;85.326;2023-03-11T05:38:16;56.80;;;45.47;;
69203;SDS011;56317;27.658;85.326;2023-03-11T05:40:43;71.72;;;45.40;;
69203;SDS011;56317;27.658;85.326;2023-03-11T05:43:10;61.30;;;44.15;;
69203;SDS011;56317;27.658;85.326;2023-03-11T05:45:37;65.65;;;46.05;;
69203;SDS011;56317;27.658;85.326;2023-03-11T05:48:05;65.03;;;44.90;;
69203;SDS011;56317;27.658;85.326;2023-03-11T05:50:32;62.45;;;44.30;;
69203;SDS011;56317;27.658;85.326;2023-03-11T05:52:59;47.95;;;36.55;;
69203;SDS011;56317;27.658;85.326;2023-03-11T05:55:26;53.78;;;37.60;;
69203;SDS011;56317;27.658;85.326;2023-03-11T05:57:53;52.67;;;37.00;;
69203;SDS011;56317;27.658;85.326;2023-03-11T06:00:21;45.85;;;34.35;;
69203;SDS011;56317;27.658;85.326;2023-03-11T06:02:48;46.05;;;34.55;;
69203;SDS011;56317;27.658;85.326;2023-03-11T06:05:15;47.38;;;33.90;;
69203;SDS011;56317;27.658;85.326;2023-03-11T06:07:42;78.93;;;37.38;;
69203;SDS011;56317;27.658;85.326;2023-03-11T06:10:10;60.55;;;35.40;;
69203;SDS011;56317;27.658;85.326;2023-03-11T06:12:37;48.97;;;34.13;;
69203;SDS011;56317;27.658;85.326;2023-03-11T06:15:05;43.45;;;35.20;;
69203;SDS011;56317;27.658;85.326;2023-03-11T06:17:33;40.42;;;32.28;;
69203;SDS011;56317;27.658;85.326;2023-03-11T06:20:00;45.53;;;32.80;;
69203;SDS011;56317;27.658;85.326;2023-03-11T06:22:29;40.40;;;33.42;;
69203;SDS011;56317;27.658;85.326;2023-03-11T06:24:56;43.63;;;33.95;;
69203;SDS011;56317;27.658;85.326;2023-03-11T06:27:23;45.63;;;31.92;;
69203;SDS011;56317;27.658;85.326;2023-03-11T06:29:51;44.47;;;32.97;;
69203;SDS011;56317;27.658;85.326;2023-03-11T06:32:19;51.42;;;33.88;;
69203;SDS011;56317;27.658;85.326;2023-03-11T06:34:48;47.75;;;34.28;;
69203;SDS011;56317;27.658;85.326;2023-03-11T06:37:17;67.78;;;35.55;;
69203;SDS011;56317;27.658;85.326;2023-03-11T06:39:45;44.05;;;33.20;;
69203;SDS011;56317;27.658;85.326;2023-03-11T06:42:12;42.83;;;33.30;;
69203;SDS011;56317;27.658;85.326;2023-03-11T06:44:39;101.30;;;34.53;;
69203;SDS011;56317;27.658;85.326;2023-03-11T06:47:07;45.63;;;35.10;;
69203;SDS011;56317;27.658;85.326;2023-03-11T06:49:34;171.27;;;38.63;;
69203;SDS011;56317;27.658;85.326;2023-03-11T06:52:05;48.95;;;35.15;;
69203;SDS011;56317;27.658;85.326;2023-03-11T06:54:32;46.03;;;32.65;;
69203;SDS011;56317;27.658;85.326;2023-03-11T06:57:00;40.83;;;33.10;;
69203;SDS011;56317;27.658;85.326;2023-03-11T06:59:28;45.85;;;33.35;;
69203;SDS011;56317;27.658;85.326;2023-03-11T07:01:55;50.10;;;33.90;;
69203;SDS011;56317;27.658;85.326;2023-03-11T07:04:23;44.30;;;33.53;;
69203;SDS011;56317;27.658;85.326;2023-03-11T07:06:51;113.10;;;36.55;;
69203;SDS011;56317;27.658;85.326;2023-03-11T07:09:18;41.03;;;32.88;;
69203;SDS011;56317;27.658;85.326;2023-03-11T07:11:47;47.53;;;34.75;;
69203;SDS011;56317;27.658;85.326;2023-03-11T07:14:14;44.92;;;33.75;;
69203;SDS011;56317;27.658;85.326;2023-03-11T07:16:42;44.58;;;33.45;;
69203;SDS011;56317;27.658;85.326;2023-03-11T07:19:10;46.28;;;34.40;;
69203;SDS011;56317;27.658;85.326;2023-03-11T07:21:37;48.63;;;34.47;;
69203;SDS011;56317;27.658;85.326;2023-03-11T07:24:05;43.53;;;34.45;;
69203;SDS011;56317;27.658;85.326;2023-03-11T07:26:33;46.80;;;35.72;;
69203;SDS011;56317;27.658;85.326;2023-03-11T07:29:01;39.58;;;35.15;;
69203;SDS011;56317;27.658;85.326;2023-03-11T07:31:29;42.58;;;35.60;;
69203;SDS011;56317;27.658;85.326;2023-03-11T07:33:59;43.03;;;34.03;;
69203;SDS011;56317;27.658;85.326;2023-03-11T07:36:28;41.95;;;33.13;;
69203;SDS011;56317;27.658;85.326;2023-03-11T07:38:56;49.28;;;33.47;;
69203;SDS011;56317;27.658;85.326;2023-03-11T07:41:28;48.72;;;31.88;;
69203;SDS011;56317;27.658;85.326;2023-03-11T07:44:00;41.15;;;32.97;;
69203;SDS011;56317;27.658;85.326;2023-03-11T07:46:28;43.55;;;34.10;;
69203;SDS011;56317;27.658;85.326;2023-03-11T07:48:56;49.17;;;33.38;;
69203;SDS011;56317;27.658;85.326;2023-03-11T07:51:27;40.03;;;32.17;;
69203;SDS011;56317;27.658;85.326;2023-03-11T07:53:57;41.22;;;31.83;;
69203;SDS011;56317;27.658;85.326;2023-03-11T07:56:26;41.55;;;32.38;;
69203;SDS011;56317;27.658;85.326;2023-03-11T07:58:56;41.50;;;32.42;;
69203;SDS011;56317;27.658;85.326;2023-03-11T08:01:28;41.05;;;32.28;;
69203;SDS011;56317;27.658;85.326;2023-03-11T08:04:01;47.50;;;33.50;;
69203;SDS011;56317;27.658;85.326;2023-03-11T08:06:31;40.30;;;32.33;;
69203;SDS011;56317;27.658;85.326;2023-03-11T08:09:00;40.20;;;33.45;;
69203;SDS011;56317;27.658;85.326;2023-03-11T08:13:56;50.58;;;35.60;;
69203;SDS011;56317;27.658;85.326;2023-03-11T08:16:24;55.25;;;37.90;;
69203;SDS011;56317;27.658;85.326;2023-03-11T08:18:52;50.95;;;36.75;;
69203;SDS011;56317;27.658;85.326;2023-03-11T08:21:22;51.85;;;39.65;;
69203;SDS011;56317;27.658;85.326;2023-03-11T08:23:51;51.05;;;40.35;;
69203;SDS011;56317;27.658;85.326;2023-03-11T08:26:21;51.53;;;40.22;;
69203;SDS011;56317;27.658;85.326;2023-03-11T08:28:49;61.75;;;42.35;;
69203;SDS011;56317;27.658;85.326;2023-03-11T08:31:17;51.42;;;41.25;;
69203;SDS011;56317;27.658;85.326;2023-03-11T08:33:47;49.28;;;41.85;;
69203;SDS011;56317;27.658;85.326;2023-03-11T08:36:15;47.13;;;39.25;;
69203;SDS011;56317;27.658;85.326;2023-03-11T08:38:43;60.63;;;41.50;;
69203;SDS011;56317;27.658;85.326;2023-03-11T08:41:11;67.32;;;43.55;;
69203;SDS011;56317;27.658;85.326;2023-03-11T08:43:38;58.95;;;41.17;;
69203;SDS011;56317;27.658;85.326;2023-03-11T08:46:06;51.85;;;41.92;;
69203;SDS011;56317;27.658;85.326;2023-03-11T08:48:35;56.10;;;41.10;;
69203;SDS011;56317;27.658;85.326;2023-03-11T08:51:07;57.90;;;39.88;;
69203;SDS011;56317;27.658;85.326;2023-03-11T08:53:36;57.38;;;42.85;;
69203;SDS011;56317;27.658;85.326;2023-03-11T08:56:04;59.53;;;41.78;;
69203;SDS011;56317;27.658;85.326;2023-03-11T08:58:32;62.75;;;41.13;;
69203;SDS011;56317;27.658;85.326;2023-03-11T09:00:59;48.53;;;38.85;;
69203;SDS011;56317;27.658;85.326;2023-03-11T09:03:29;61.83;;;39.47;;
69203;SDS011;56317;27.658;85.326;2023-03-11T09:06:04;57.20;;;42.08;;
69203;SDS011;56317;27.658;85.326;2023-03-11T09:08:34;65.57;;;43.17;;
69203;SDS011;56317;27.658;85.326;2023-03-11T09:11:01;66.15;;;42.45;;
69203;SDS011;56317;27.658;85.326;2023-03-11T09:13:28;62.65;;;41.70;;
69203;SDS011;56317;27.658;85.326;2023-03-11T09:15:55;65.90;;;44.17;;
69203;SDS011;56317;27.658;85.326;2023-03-11T09:18:22;67.75;;;44.80;;
69203;SDS011;56317;27.658;85.326;2023-03-11T09:20:50;63.40;;;47.72;;
69203;SDS011;56317;27.658;85.326;2023-03-11T09:23:22;59.88;;;44.78;;
69203;SDS011;56317;27.658;85.326;2023-03-11T09:25:50;71.30;;;45.20;;
69203;SDS011;56317;27.658;85.326;2023-03-11T09:28:17;72.22;;;46.83;;
69203;SDS011;56317;27.658;85.326;2023-03-11T09:30:44;73.50;;;45.60;;
69203;SDS011;56317;27.658;85.326;2023-03-11T09:33:11;82.70;;;48.40;;
69203;SDS011;56317;27.658;85.326;2023-03-11T09:35:38;79.88;;;47.42;;
69203;SDS011;56317;27.658;85.326;2023-03-11T09:38:06;85.47;;;48.53;;
69203;SDS011;56317;27.658;85.326;2023-03-11T09:40:48;83.50;;;49.55;;
69203;SDS011;56317;27.658;85.326;2023-03-11T09:52:18;75.03;;;49.22;;
69203;SDS011;56317;27.658;85.326;2023-03-11T09:54:53;80.93;;;50.85;;
69203;SDS011;56317;27.658;85.326;2023-03-11T09:57:29;77.97;;;49.85;;
69203;SDS011;56317;27.658;85.326;2023-03-11T10:00:00;78.63;;;51.85;;
69203;SDS011;56317;27.658;85.326;2023-03-11T10:02:29;79.13;;;51.33;;
69203;SDS011;56317;27.658;85.326;2023-03-11T10:08:10;76.30;;;51.22;;
69203;SDS011;56317;27.658;85.326;2023-03-11T10:11:14;84.63;;;54.67;;
69203;SDS011;56317;27.658;85.326;2023-03-11T10:14:32;76.88;;;52.55;;
69203;SDS011;56317;27.658;85.326;2023-03-11T10:19:49;88.23;;;52.23;;
69203;SDS011;56317;27.658;85.326;2023-03-11T10:22:41;71.88;;;52.67;;
69203;SDS011;56317;27.658;85.326;2023-03-11T10:25:17;86.80;;;55.78;;
69203;SDS011;56317;27.658;85.326;2023-03-11T10:30:22;100.95;;;71.05;;
69203;SDS011;56317;27.658;85.326;2023-03-11T10:32:53;102.03;;;71.35;;
69203;SDS011;56317;27.658;85.326;2023-03-11T10:35:36;101.75;;;71.35;;
69203;SDS011;56317;27.658;85.326;2023-03-11T10:38:25;105.22;;;74.97;;
69203;SDS011;56317;27.658;85.326;2023-03-11T10:41:04;101.85;;;71.72;;
69203;SDS011;56317;27.658;85.326;2023-03-11T10:43:44;104.13;;;75.15;;
69203;SDS011;56317;27.658;85.326;2023-03-11T10:46:27;104.25;;;77.57;;
69203;SDS011;56317;27.658;85.326;2023-03-11T10:48:55;116.90;;;79.60;;
69203;SDS011;56317;27.658;85.326;2023-03-11T10:51:23;115.18;;;77.72;;
69203;SDS011;56317;27.658;85.326;2023-03-11T10:53:59;119.13;;;79.90;;
69203;SDS011;56317;27.658;85.326;2023-03-11T10:56:32;119.18;;;79.15;;
69203;SDS011;56317;27.658;85.326;2023-03-11T10:59:02;110.13;;;78.70;;
69203;SDS011;56317;27.658;85.326;2023-03-11T11:01:30;133.30;;;84.55;;
69203;SDS011;56317;27.658;85.326;2023-03-11T11:03:59;114.05;;;79.93;;
69203;SDS011;56317;27.658;85.326;2023-03-11T11:06:31;133.38;;;84.65;;
69203;SDS011;56317;27.658;85.326;2023-03-11T11:09:09;112.03;;;68.78;;
69203;SDS011;56317;27.658;85.326;2023-03-11T11:14:48;77.90;;;50.88;;
69203;SDS011;56317;27.658;85.326;2023-03-11T11:19:48;90.00;;;55.30;;
69203;SDS011;56317;27.658;85.326;2023-03-11T11:22:21;97.03;;;55.13;;
69203;SDS011;56317;27.658;85.326;2023-03-11T11:24:53;83.40;;;50.42;;
69203;SDS011;56317;27.658;85.326;2023-03-11T11:27:22;93.22;;;62.60;;
69203;SDS011;56317;27.658;85.326;2023-03-11T11:30:13;101.00;;;66.03;;
69203;SDS011;56317;27.658;85.326;2023-03-11T11:32:42;100.38;;;69.85;;
69203;SDS011;56317;27.658;85.326;2023-03-11T11:35:10;94.05;;;63.30;;
69203;SDS011;56317;27.658;85.326;2023-03-11T11:37:45;70.88;;;50.70;;
69203;SDS011;56317;27.658;85.326;2023-03-11T11:40:27;54.33;;;33.05;;
69203;SDS011;56317;27.658;85.326;2023-03-11T11:43:04;33.33;;;22.23;;
69203;SDS011;56317;27.658;85.326;2023-03-11T11:45:38;39.00;;;24.65;;
69203;SDS011;56317;27.658;85.326;2023-03-11T11:51:21;44.10;;;28.90;;
69203;SDS011;56317;27.658;85.326;2023-03-11T11:56:27;44.88;;;30.27;;
69203;SDS011;56317;27.658;85.326;2023-03-11T11:58:55;57.75;;;35.92;;
69203;SDS011;56317;27.658;85.326;2023-03-11T12:04:11;62.72;;;41.80;;
69203;SDS011;56317;27.658;85.326;2023-03-11T12:17:32;81.40;;;50.65;;
69203;SDS011;56317;27.658;85.326;2023-03-11T12:20:07;71.70;;;48.83;;
69203;SDS011;56317;27.658;85.326;2023-03-11T12:31:14;71.72;;;46.45;;
69203;SDS011;56317;27.658;85.326;2023-03-11T12:33:44;75.97;;;49.20;;
69203;SDS011;56317;27.658;85.326;2023-03-11T12:36:44;49.42;;;33.13;;
69203;SDS011;56317;27.658;85.326;2023-03-11T12:39:44;60.92;;;42.35;;
69203;SDS011;56317;27.658;85.326;2023-03-11T12:44:42;59.20;;;41.50;;
69203;SDS011;56317;27.658;85.326;2023-03-11T12:49:39;60.60;;;39.60;;
69203;SDS011;56317;27.658;85.326;2023-03-11T12:54:39;68.18;;;40.88;;
69203;SDS011;56317;27.658;85.326;2023-03-11T13:08:28;66.80;;;39.70;;
69203;SDS011;56317;27.658;85.326;2023-03-11T13:16:46;63.75;;;42.00;;
69203;SDS011;56317;27.658;85.326;2023-03-11T13:21:59;74.18;;;42.67;;
69203;SDS011;56317;27.658;85.326;2023-03-11T13:41:11;99.47;;;50.45;;
69203;SDS011;56317;27.658;85.326;2023-03-11T13:43:43;86.03;;;44.95;;
69203;SDS011;56317;27.658;85.326;2023-03-11T13:46:25;153.10;;;49.85;;
69203;SDS011;56317;27.658;85.326;2023-03-11T13:49:07;118.00;;;51.13;;
69203;SDS011;56317;27.658;85.326;2023-03-11T13:51:46;128.73;;;53.10;;
69203;SDS011;56317;27.658;85.326;2023-03-11T13:59:27;107.70;;;48.55;;
69203;SDS011;56317;27.658;85.326;2023-03-11T14:01:58;118.82;;;48.92;;
69203;SDS011;56317;27.658;85.326;2023-03-11T14:04:31;145.40;;;52.25;;
69203;SDS011;56317;27.658;85.326;2023-03-11T14:12:44;148.63;;;53.05;;
69203;SDS011;56317;27.658;85.326;2023-03-11T14:15:23;106.68;;;53.17;;
69203;SDS011;56317;27.658;85.326;2023-03-11T14:17:52;125.25;;;54.58;;
69203;SDS011;56317;27.658;85.326;2023-03-11T14:20:39;129.65;;;59.80;;
69203;SDS011;56317;27.658;85.326;2023-03-11T14:23:10;128.10;;;64.05;;
69203;SDS011;56317;27.658;85.326;2023-03-11T14:25:43;144.82;;;65.70;;
69203;SDS011;56317;27.658;85.326;2023-03-11T14:28:22;121.97;;;64.53;;
69203;SDS011;56317;27.658;85.326;2023-03-11T14:30:55;81.32;;;52.58;;
69203;SDS011;56317;27.658;85.326;2023-03-11T14:33:26;101.35;;;56.45;;
69203;SDS011;56317;27.658;85.326;2023-03-11T14:35:55;119.50;;;57.25;;
69203;SDS011;56317;27.658;85.326;2023-03-11T14:38:25;116.07;;;60.38;;
69203;SDS011;56317;27.658;85.326;2023-03-11T14:40:55;102.75;;;56.17;;
69203;SDS011;56317;27.658;85.326;2023-03-11T14:43:26;118.82;;;54.55;;
69203;SDS011;56317;27.658;85.326;2023-03-11T14:45:57;79.18;;;44.40;;
69203;SDS011;56317;27.658;85.326;2023-03-11T14:48:30;70.32;;;41.78;;
69203;SDS011;56317;27.658;85.326;2023-03-11T14:51:06;69.57;;;44.30;;
69203;SDS011;56317;27.658;85.326;2023-03-11T14:53:40;81.78;;;43.55;;
69203;SDS011;56317;27.658;85.326;2023-03-11T14:56:28;90.90;;;46.00;;
69203;SDS011;56317;27.658;85.326;2023-03-11T14:59:07;69.40;;;43.13;;
69203;SDS011;56317;27.658;85.326;2023-03-11T15:01:51;101.53;;;46.15;;
69203;SDS011;56317;27.658;85.326;2023-03-11T15:06:57;94.15;;;48.80;;
69203;SDS011;56317;27.658;85.326;2023-03-11T15:09:25;99.03;;;48.65;;
69203;SDS011;56317;27.658;85.326;2023-03-11T15:11:55;89.65;;;48.55;;
69203;SDS011;56317;27.658;85.326;2023-03-11T15:14:25;104.50;;;47.15;;
69203;SDS011;56317;27.658;85.326;2023-03-11T15:19:42;92.30;;;43.90;;
69203;SDS011;56317;27.658;85.326;2023-03-11T15:22:23;127.35;;;47.60;;
69203;SDS011;56317;27.658;85.326;2023-03-11T15:24:55;97.70;;;44.25;;
69203;SDS011;56317;27.658;85.326;2023-03-11T15:29:57;181.15;;;54.53;;
69203;SDS011;56317;27.658;85.326;2023-03-11T15:37:36;156.73;;;69.07;;
69203;SDS011;56317;27.658;85.326;2023-03-11T15:46:01;149.13;;;70.43;;
69203;SDS011;56317;27.658;85.326;2023-03-11T15:48:28;125.55;;;65.47;;
69203;SDS011;56317;27.658;85.326;2023-03-11T15:50:56;133.82;;;67.68;;
69203;SDS011;56317;27.658;85.326;2023-03-11T15:53:29;141.85;;;68.22;;
69203;SDS011;56317;27.658;85.326;2023-03-11T15:56:09;143.55;;;72.43;;
69203;SDS011;56317;27.658;85.326;2023-03-11T15:58:43;140.30;;;71.55;;
69203;SDS011;56317;27.658;85.326;2023-03-11T16:01:10;155.02;;;74.00;;
69203;SDS011;56317;27.658;85.326;2023-03-11T16:03:38;169.90;;;76.80;;
69203;SDS011;56317;27.658;85.326;2023-03-11T16:06:08;165.27;;;75.00;;
69203;SDS011;56317;27.658;85.326;2023-03-11T16:08:35;151.85;;;72.45;;
69203;SDS011;56317;27.658;85.326;2023-03-11T16:11:02;160.55;;;73.78;;
69203;SDS011;56317;27.658;85.326;2023-03-11T16:13:29;150.13;;;77.68;;
69203;SDS011;56317;27.658;85.326;2023-03-11T16:15:56;162.13;;;77.00;;
69203;SDS011;56317;27.658;85.326;2023-03-11T16:18:24;161.82;;;77.25;;
69203;SDS011;56317;27.658;85.326;2023-03-11T16:20:51;183.50;;;80.50;;
69203;SDS011;56317;27.658;85.326;2023-03-11T16:23:21;162.40;;;77.15;;
69203;SDS011;56317;27.658;85.326;2023-03-11T16:26:01;175.13;;;78.65;;
69203;SDS011;56317;27.658;85.326;2023-03-11T16:28:30;137.77;;;71.22;;
69203;SDS011;56317;27.658;85.326;2023-03-11T16:30:58;137.07;;;69.05;;